sensor_id;sensor_type;location;lat;lon;timestamp;pressure;altitude;pressure_sealevel;temperature;humidity
38253;BME280;24785;52.372;20.672;2023-09-08T00:08:44;101667.28;;;12.34;100.00
38253;BME280;24785;52.372;20.672;2023-09-08T00:18:44;101669.09;;;12.28;100.00
38253;BME280;24785;52.372;20.672;2023-09-08T00:28:45;101674.88;;;12.15;100.00
38253;BME280;24785;52.372;20.672;2023-09-08T00:38:46;101670.72;;;12.03;100.00
38253;BME280;24785;52.372;20.672;2023-09-08T00:48:46;101659.69;;;11.99;100.00
38253;BME280;24785;52.372;20.672;2023-09-08T00:58:47;101658.66;;;12.05;100.00
38253;BME280;24785;52.372;20.672;2023-09-08T01:08:48;101658.09;;;12.03;100.00
38253;BME280;24785;52.372;20.672;2023-09-08T01:18:50;101651.81;;;11.92;100.00
38253;BME280;24785;52.372;20.672;2023-09-08T01:28:53;101647.28;;;11.76;100.00
38253;BME280;24785;52.372;20.672;2023-09-08T01:38:55;101654.69;;;11.42;100.00
38253;BME280;24785;52.372;20.672;2023-09-08T01:48:55;101645.56;;;11.43;100.00
38253;BME280;24785;52.372;20.672;2023-09-08T01:58:56;101629.56;;;11.31;100.00
38253;BME280;24785;52.372;20.672;2023-09-08T02:08:57;101629.31;;;11.33;100.00
38253;BME280;24785;52.372;20.672;2023-09-08T02:18:58;101631.50;;;11.14;100.00
38253;BME280;24785;52.372;20.672;2023-09-08T02:29:00;101632.66;;;11.01;100.00
38253;BME280;24785;52.372;20.672;2023-09-08T02:39:01;101622.75;;;10.85;100.00
38253;BME280;24785;52.372;20.672;2023-09-08T02:49:02;101617.31;;;10.80;100.00
38253;BME280;24785;52.372;20.672;2023-09-08T02:59:03;101615.22;;;10.65;100.00
38253;BME280;24785;52.372;20.672;2023-09-08T03:09:03;101604.84;;;10.52;100.00
38253;BME280;24785;52.372;20.672;2023-09-08T03:19:04;101609.22;;;10.42;100.00
38253;BME280;24785;52.372;20.672;2023-09-08T03:29:05;101619.34;;;10.23;100.00
38253;BME280;24785;52.372;20.672;2023-09-08T03:39:06;101611.47;;;10.33;100.00
38253;BME280;24785;52.372;20.672;2023-09-08T03:49:09;101612.13;;;10.40;100.00
38253;BME280;24785;52.372;20.672;2023-09-08T03:59:10;101621.63;;;10.31;100.00
38253;BME280;24785;52.372;20.672;2023-09-08T04:09:11;101615.28;;;10.37;100.00
38253;BME280;24785;52.372;20.672;2023-09-08T04:19:12;101608.63;;;10.23;100.00
38253;BME280;24785;52.372;20.672;2023-09-08T04:29:13;101606.50;;;10.25;100.00
38253;BME280;24785;52.372;20.672;2023-09-08T04:39:13;101611.75;;;10.48;100.00
38253;BME280;24785;52.372;20.672;2023-09-08T04:49:16;101612.13;;;10.90;100.00
38253;BME280;24785;52.372;20.672;2023-09-08T04:59:16;101625.56;;;11.34;100.00
38253;BME280;24785;52.372;20.672;2023-09-08T05:09:17;101598.34;;;11.91;100.00
38253;BME280;24785;52.372;20.672;2023-09-08T05:19:18;101605.47;;;12.71;100.00
38253;BME280;24785;52.372;20.672;2023-09-08T05:29:19;101606.44;;;13.39;100.00
38253;BME280;24785;52.372;20.672;2023-09-08T05:39:20;101592.06;;;14.11;100.00
38253;BME280;24785;52.372;20.672;2023-09-08T05:49:20;101610.94;;;14.88;100.00
38253;BME280;24785;52.372;20.672;2023-09-08T05:59:21;101614.25;;;15.44;100.00
38253;BME280;24785;52.372;20.672;2023-09-08T06:09:22;101614.75;;;16.05;100.00
38253;BME280;24785;52.372;20.672;2023-09-08T06:19:23;101608.41;;;16.59;100.00
38253;BME280;24785;52.372;20.672;2023-09-08T06:29:23;101610.69;;;17.05;100.00
38253;BME280;24785;52.372;20.672;2023-09-08T06:39:25;101607.19;;;17.47;100.00
38253;BME280;24785;52.372;20.672;2023-09-08T06:49:27;101605.41;;;17.80;100.00
38253;BME280;24785;52.372;20.672;2023-09-08T06:59:28;101602.66;;;18.04;100.00
38253;BME280;24785;52.372;20.672;2023-09-08T07:09:28;101613.94;;;18.44;100.00
38253;BME280;24785;52.372;20.672;2023-09-08T07:19:29;101602.88;;;18.73;100.00
38253;BME280;24785;52.372;20.672;2023-09-08T07:29:30;101603.81;;;18.96;100.00
38253;BME280;24785;52.372;20.672;2023-09-08T07:39:30;101601.50;;;19.58;100.00
38253;BME280;24785;52.372;20.672;2023-09-08T07:49:33;101609.78;;;19.89;97.45
38253;BME280;24785;52.372;20.672;2023-09-08T07:59:34;101612.28;;;20.21;92.10
38253;BME280;24785;52.372;20.672;2023-09-08T08:09:35;101599.09;;;20.59;89.08
38253;BME280;24785;52.372;20.672;2023-09-08T08:19:36;101591.63;;;21.04;86.96
38253;BME280;24785;52.372;20.672;2023-09-08T08:29:36;101592.25;;;21.50;82.63
38253;BME280;24785;52.372;20.672;2023-09-08T08:39:37;101590.69;;;21.83;79.75
38253;BME280;24785;52.372;20.672;2023-09-08T08:49:38;101583.63;;;22.25;77.36
38253;BME280;24785;52.372;20.672;2023-09-08T08:59:43;101572.06;;;22.67;73.86
38253;BME280;24785;52.372;20.672;2023-09-08T09:09:44;101560.81;;;22.68;73.01
38253;BME280;24785;52.372;20.672;2023-09-08T09:19:45;101561.13;;;23.13;70.90
38253;BME280;24785;52.372;20.672;2023-09-08T09:29:48;101542.63;;;23.40;68.20
38253;BME280;24785;52.372;20.672;2023-09-08T09:39:50;101535.34;;;23.85;64.82
38253;BME280;24785;52.372;20.672;2023-09-08T09:49:51;101521.25;;;23.96;65.48
38253;BME280;24785;52.372;20.672;2023-09-08T09:59:53;101504.31;;;24.60;59.10
38253;BME280;24785;52.372;20.672;2023-09-08T10:09:54;101486.47;;;24.90;51.70
38253;BME280;24785;52.372;20.672;2023-09-08T10:19:57;101487.97;;;25.80;53.60
38253;BME280;24785;52.372;20.672;2023-09-08T10:30:01;101481.69;;;26.90;50.27
38253;BME280;24785;52.372;20.672;2023-09-08T10:40:25;101472.53;;;27.17;45.81
38253;BME280;24785;52.372;20.672;2023-09-08T10:50:35;101458.31;;;27.15;46.79
38253;BME280;24785;52.372;20.672;2023-09-08T11:00:45;101448.06;;;26.30;48.40
38253;BME280;24785;52.372;20.672;2023-09-08T11:10:46;101442.75;;;26.06;48.05
38253;BME280;24785;52.372;20.672;2023-09-08T11:20:51;101435.56;;;26.32;48.08
38253;BME280;24785;52.372;20.672;2023-09-08T11:30:52;101434.59;;;26.09;48.10
38253;BME280;24785;52.372;20.672;2023-09-08T11:40:55;101438.28;;;25.85;52.67
38253;BME280;24785;52.372;20.672;2023-09-08T11:50:57;101435.16;;;25.43;51.15
38253;BME280;24785;52.372;20.672;2023-09-08T12:00:59;101411.47;;;26.77;46.36
38253;BME280;24785;52.372;20.672;2023-09-08T12:11:00;101404.09;;;26.61;48.25
38253;BME280;24785;52.372;20.672;2023-09-08T12:21:04;101403.22;;;26.42;49.36
38253;BME280;24785;52.372;20.672;2023-09-08T12:31:09;101386.31;;;26.94;46.82
38253;BME280;24785;52.372;20.672;2023-09-08T12:41:10;101384.19;;;27.22;44.13
38253;BME280;24785;52.372;20.672;2023-09-08T12:51:11;101370.97;;;27.32;42.04
38253;BME280;24785;52.372;20.672;2023-09-08T13:01:11;101368.72;;;26.79;43.67
38253;BME280;24785;52.372;20.672;2023-09-08T13:11:12;101347.00;;;27.32;42.54
38253;BME280;24785;52.372;20.672;2023-09-08T13:21:13;101346.66;;;26.95;43.78
38253;BME280;24785;52.372;20.672;2023-09-08T13:31:14;101330.06;;;26.91;43.65
38253;BME280;24785;52.372;20.672;2023-09-08T13:41:14;101325.00;;;27.32;41.91
38253;BME280;24785;52.372;20.672;2023-09-08T13:51:15;101312.78;;;26.91;42.75
38253;BME280;24785;52.372;20.672;2023-09-08T14:01:16;101298.75;;;27.38;41.63
38253;BME280;24785;52.372;20.672;2023-09-08T14:11:17;101301.25;;;27.66;41.73
38253;BME280;24785;52.372;20.672;2023-09-08T14:21:18;101306.13;;;26.73;43.99
38253;BME280;24785;52.372;20.672;2023-09-08T14:31:19;101293.31;;;26.80;43.00
38253;BME280;24785;52.372;20.672;2023-09-08T14:41:20;101280.03;;;27.67;42.72
38253;BME280;24785;52.372;20.672;2023-09-08T14:51:21;101279.00;;;27.33;43.34
38253;BME280;24785;52.372;20.672;2023-09-08T15:01:22;101275.81;;;26.69;44.60
38253;BME280;24785;52.372;20.672;2023-09-08T15:11:23;101257.75;;;27.52;42.66
38253;BME280;24785;52.372;20.672;2023-09-08T15:21:24;101255.31;;;27.47;43.87
38253;BME280;24785;52.372;20.672;2023-09-08T15:31:28;101253.56;;;27.16;43.33
38253;BME280;24785;52.372;20.672;2023-09-08T15:41:29;101235.56;;;26.80;45.09
38253;BME280;24785;52.372;20.672;2023-09-08T15:51:30;101243.91;;;26.64;45.76
38253;BME280;24785;52.372;20.672;2023-09-08T16:01:31;101252.59;;;26.12;47.03
38253;BME280;24785;52.372;20.672;2023-09-08T16:11:32;101243.22;;;25.97;47.26
38253;BME280;24785;52.372;20.672;2023-09-08T16:21:33;101237.84;;;27.40;45.75
38253;BME280;24785;52.372;20.672;2023-09-08T16:31:34;101239.50;;;26.06;48.60
38253;BME280;24785;52.372;20.672;2023-09-08T16:41:35;101249.38;;;24.44;53.71
38253;BME280;24785;52.372;20.672;2023-09-08T16:51:35;101251.25;;;23.09;59.10
38253;BME280;24785;52.372;20.672;2023-09-08T17:01:36;101264.31;;;21.61;65.74
38253;BME280;24785;52.372;20.672;2023-09-08T17:11:37;101267.03;;;20.80;69.40
38253;BME280;24785;52.372;20.672;2023-09-08T17:21:40;101273.66;;;20.05;75.13
38253;BME280;24785;52.372;20.672;2023-09-08T17:31:41;101281.16;;;19.60;78.92
38253;BME280;24785;52.372;20.672;2023-09-08T17:41:42;101297.19;;;18.72;82.83
38253;BME280;24785;52.372;20.672;2023-09-08T17:51:42;101290.41;;;18.33;87.49
38253;BME280;24785;52.372;20.672;2023-09-08T18:01:43;101295.03;;;17.91;93.28
38253;BME280;24785;52.372;20.672;2023-09-08T18:11:44;101288.75;;;17.50;99.43
38253;BME280;24785;52.372;20.672;2023-09-08T18:21:45;101297.66;;;17.04;100.00
38253;BME280;24785;52.372;20.672;2023-09-08T18:31:47;101294.44;;;16.64;100.00
38253;BME280;24785;52.372;20.672;2023-09-08T18:41:47;101287.84;;;16.33;100.00
38253;BME280;24785;52.372;20.672;2023-09-08T18:51:48;101289.13;;;15.93;100.00
38253;BME280;24785;52.372;20.672;2023-09-08T19:01:49;101289.41;;;15.67;100.00
38253;BME280;24785;52.372;20.672;2023-09-08T19:11:50;101273.94;;;15.44;100.00
38253;BME280;24785;52.372;20.672;2023-09-08T19:21:51;101276.03;;;15.23;100.00
38253;BME280;24785;52.372;20.672;2023-09-08T19:31:52;101265.94;;;15.00;100.00
38253;BME280;24785;52.372;20.672;2023-09-08T19:41:53;101274.25;;;14.74;100.00
38253;BME280;24785;52.372;20.672;2023-09-08T19:51:54;101268.94;;;14.59;100.00
38253;BME280;24785;52.372;20.672;2023-09-08T20:01:54;101256.91;;;14.36;100.00
38253;BME280;24785;52.372;20.672;2023-09-08T20:11:55;101254.84;;;14.18;100.00
38253;BME280;24785;52.372;20.672;2023-09-08T20:21:56;101250.34;;;13.98;100.00
38253;BME280;24785;52.372;20.672;2023-09-08T20:31:57;101267.16;;;13.65;100.00
38253;BME280;24785;52.372;20.672;2023-09-08T20:41:58;101261.00;;;13.44;100.00
38253;BME280;24785;52.372;20.672;2023-09-08T20:51:59;101259.41;;;13.43;100.00
38253;BME280;24785;52.372;20.672;2023-09-08T21:02:00;101252.41;;;13.42;100.00
38253;BME280;24785;52.372;20.672;2023-09-08T21:12:01;101254.81;;;13.23;100.00
38253;BME280;24785;52.372;20.672;2023-09-08T21:22:01;101259.38;;;12.97;100.00
38253;BME280;24785;52.372;20.672;2023-09-08T21:32:03;101249.72;;;12.81;100.00
38253;BME280;24785;52.372;20.672;2023-09-08T21:42:04;101250.75;;;12.75;100.00
38253;BME280;24785;52.372;20.672;2023-09-08T21:52:05;101240.53;;;12.67;100.00
38253;BME280;24785;52.372;20.672;2023-09-08T22:02:06;101252.06;;;12.47;100.00
38253;BME280;24785;52.372;20.672;2023-09-08T22:12:07;101254.72;;;12.32;100.00
38253;BME280;24785;52.372;20.672;2023-09-08T22:22:07;101248.47;;;12.21;100.00
38253;BME280;24785;52.372;20.672;2023-09-08T22:32:08;101243.06;;;12.06;100.00
38253;BME280;24785;52.372;20.672;2023-09-08T22:42:09;101248.38;;;11.90;100.00
38253;BME280;24785;52.372;20.672;2023-09-08T22:52:10;101246.38;;;11.76;100.00
38253;BME280;24785;52.372;20.672;2023-09-08T23:02:10;101250.84;;;11.55;100.00
38253;BME280;24785;52.372;20.672;2023-09-08T23:12:11;101248.38;;;11.48;100.00
38253;BME280;24785;52.372;20.672;2023-09-08T23:22:12;101244.91;;;11.48;100.00
38253;BME280;24785;52.372;20.672;2023-09-08T23:32:13;101241.47;;;11.20;100.00
38253;BME280;24785;52.372;20.672;2023-09-08T23:42:16;101239.59;;;11.21;100.00
38253;BME280;24785;52.372;20.672;2023-09-08T23:52:17;101237.41;;;11.13;100.00
